Time;durP1;ratioP1;P1;durP2;ratioP2;P2;SDS_P1;SDS_P2;PMS_P1;PMS_P2;Temp;Humidity;BMP_temperature;BMP_pressure;BME280_temperature;BME280_humidity;BME280_pressure;Samples;Min_cycle;Max_cycle;Signal;HPM_P1;HPM_P2
2023/06/23 00:00:35;;;;;;;2.72;1.75;;;;;;;;;;4970457;28;20391;-89
2023/06/23 00:03:00;;;;;;;2.85;1.90;;;;;;;;;;4975622;28;20034;-88
2023/06/23 00:05:27;;;;;;;2.53;2.00;;;;;;;;;;4971188;28;20027;-88
2023/06/23 00:07:52;;;;;;;2.13;1.85;;;;;;;;;;4970119;28;20098;-88
2023/06/23 00:10:19;;;;;;;3.40;1.80;;;;;;;;;;4977960;28;20035;-88
2023/06/23 00:12:44;;;;;;;2.92;1.67;;;;;;;;;;4971169;28;20058;-89
2023/06/23 00:15:13;;;;;;;3.95;2.15;;;;;;;;;;4990871;28;20050;-89
2023/06/23 00:17:41;;;;;;;3.42;1.70;;;;;;;;;;4972471;28;20427;-88
2023/06/23 00:20:10;;;;;;;4.82;1.80;;;;;;;;;;4987691;28;20459;-88
2023/06/23 00:22:36;;;;;;;3.25;2.20;;;;;;;;;;4969485;28;20058;-89
2023/06/23 00:25:03;;;;;;;2.38;1.40;;;;;;;;;;4952468;28;20034;-89
2023/06/23 00:27:28;;;;;;;4.50;2.08;;;;;;;;;;4975749;28;20061;-88
2023/06/23 00:29:54;;;;;;;2.80;1.80;;;;;;;;;;4972446;28;20050;-89
2023/06/23 00:32:19;;;;;;;3.95;2.10;;;;;;;;;;4991134;28;20137;-88
2023/06/23 00:34:45;;;;;;;4.10;1.75;;;;;;;;;;4978808;28;20083;-89
2023/06/23 00:37:10;;;;;;;3.15;1.70;;;;;;;;;;4965260;28;20035;-88
2023/06/23 00:39:35;;;;;;;6.10;2.50;;;;;;;;;;4969575;28;20027;-88
2023/06/23 00:42:06;;;;;;;1.92;1.70;;;;;;;;;;4988260;28;20033;-88
2023/06/23 00:44:33;;;;;;;5.53;2.42;;;;;;;;;;4968181;28;20089;-88
2023/06/23 00:47:03;;;;;;;2.92;1.88;;;;;;;;;;4972985;28;20034;-87
2023/06/23 00:49:29;;;;;;;4.68;2.10;;;;;;;;;;4970067;28;20030;-87
2023/06/23 00:51:56;;;;;;;3.38;2.95;;;;;;;;;;4970989;28;20050;-87
2023/06/23 00:54:25;;;;;;;6.78;3.35;;;;;;;;;;4970007;28;20027;-87
2023/06/23 00:56:50;;;;;;;3.40;2.65;;;;;;;;;;4977497;28;20041;-87
2023/06/23 00:59:16;;;;;;;3.75;2.17;;;;;;;;;;4971212;28;20022;-87
2023/06/23 01:01:41;;;;;;;11.52;3.05;;;;;;;;;;4966323;28;20538;-87
2023/06/23 01:04:08;;;;;;;3.00;2.00;;;;;;;;;;4969069;28;20030;-87
2023/06/23 01:06:46;;;;;;;4.28;2.72;;;;;;;;;;4967763;28;20034;-87
2023/06/23 01:09:34;;;;;;;4.50;3.95;;;;;;;;;;4983514;28;20019;-87
2023/06/23 01:12:19;;;;;;;4.32;3.85;;;;;;;;;;4966246;28;20080;-87
2023/06/23 01:15:00;;;;;;;7.50;3.78;;;;;;;;;;4991848;23;20494;-78
2023/06/23 01:17:48;;;;;;;3.58;2.55;;;;;;;;;;4979834;28;20092;-79
2023/06/23 01:20:21;;;;;;;4.28;2.63;;;;;;;;;;4946928;28;20103;-78
2023/06/23 01:23:01;;;;;;;6.70;4.55;;;;;;;;;;4948407;28;20032;-78
2023/06/23 01:25:55;;;;;;;14.48;9.98;;;;;;;;;;4962358;28;20082;-79
2023/06/23 01:28:29;;;;;;;16.23;10.05;;;;;;;;;;4955677;28;20019;-78
2023/06/23 01:30:57;;;;;;;13.93;9.57;;;;;;;;;;4969758;28;20134;-78
2023/06/23 01:33:37;;;;;;;9.02;6.15;;;;;;;;;;4949413;28;20760;-78
2023/06/23 01:36:18;;;;;;;5.65;5.00;;;;;;;;;;4951932;28;20035;-78
2023/06/23 01:38:50;;;;;;;5.38;4.55;;;;;;;;;;4948487;28;20038;-78
2023/06/23 01:41:28;;;;;;;3.97;1.98;;;;;;;;;;4955102;28;20379;-77
2023/06/23 01:43:56;;;;;;;5.25;3.72;;;;;;;;;;4949073;28;20023;-78
2023/06/23 01:46:27;;;;;;;3.95;3.55;;;;;;;;;;4949182;28;20027;-79
2023/06/23 01:49:02;;;;;;;6.20;4.45;;;;;;;;;;4951552;28;20117;-77
2023/06/23 01:51:28;;;;;;;5.22;4.03;;;;;;;;;;4950641;28;20027;-77
2023/06/23 01:53:55;;;;;;;8.07;5.00;;;;;;;;;;4950218;28;20070;-78
2023/06/23 01:56:23;;;;;;;8.23;4.63;;;;;;;;;;4949302;28;20122;-77
2023/06/23 01:58:50;;;;;;;9.13;5.57;;;;;;;;;;4951798;28;20054;-78
2023/06/23 02:01:17;;;;;;;4.80;3.63;;;;;;;;;;4955716;28;20031;-78
2023/06/23 02:03:45;;;;;;;8.13;4.80;;;;;;;;;;4948511;28;20054;-78
2023/06/23 02:06:12;;;;;;;5.80;5.25;;;;;;;;;;4953046;28;20640;-77
2023/06/23 02:08:39;;;;;;;9.35;5.72;;;;;;;;;;4950975;28;20034;-77
2023/06/23 02:11:06;;;;;;;2.30;2.10;;;;;;;;;;4951230;28;20560;-77
2023/06/23 02:13:32;;;;;;;7.63;5.63;;;;;;;;;;4960340;28;20086;-78
2023/06/23 02:15:59;;;;;;;7.10;4.00;;;;;;;;;;4957835;28;20488;-77
2023/06/23 02:18:26;;;;;;;5.55;4.53;;;;;;;;;;4953078;28;20041;-78
2023/06/23 02:20:53;;;;;;;7.57;6.15;;;;;;;;;;4957059;28;20015;-78
2023/06/23 02:23:19;;;;;;;5.95;4.13;;;;;;;;;;4975554;28;20384;-77
2023/06/23 02:25:45;;;;;;;2.97;2.70;;;;;;;;;;4958773;28;20019;-78
2023/06/23 02:28:12;;;;;;;6.15;5.50;;;;;;;;;;4951074;28;20102;-78
2023/06/23 02:30:41;;;;;;;6.43;3.63;;;;;;;;;;4968874;28;20032;-78
2023/06/23 02:33:07;;;;;;;1.58;1.45;;;;;;;;;;4949312;28;20078;-78
2023/06/23 02:35:33;;;;;;;2.67;2.47;;;;;;;;;;4957781;28;20102;-78
2023/06/23 02:38:02;;;;;;;6.05;4.95;;;;;;;;;;4947753;28;20031;-77
2023/06/23 02:40:30;;;;;;;10.13;5.32;;;;;;;;;;4951171;28;20074;-79
2023/06/23 02:43:01;;;;;;;5.43;4.88;;;;;;;;;;4955880;28;20023;-78
2023/06/23 02:45:30;;;;;;;4.22;3.42;;;;;;;;;;4949943;28;20025;-79
2023/06/23 02:47:57;;;;;;;6.05;5.35;;;;;;;;;;4947197;28;20045;-78
2023/06/23 02:50:31;;;;;;;7.10;5.15;;;;;;;;;;4949978;28;20055;-78
2023/06/23 02:53:03;;;;;;;7.90;5.72;;;;;;;;;;4971656;28;20126;-77
2023/06/23 02:55:32;;;;;;;3.28;2.80;;;;;;;;;;4953260;28;20029;-78
2023/06/23 02:58:02;;;;;;;6.18;5.60;;;;;;;;;;4949621;28;20027;-78
2023/06/23 03:00:29;;;;;;;11.13;6.35;;;;;;;;;;4950274;28;20054;-78
2023/06/23 03:02:59;;;;;;;8.98;6.43;;;;;;;;;;4952148;28;20492;-78
2023/06/23 03:05:26;;;;;;;6.65;5.13;;;;;;;;;;4952815;28;20038;-78
2023/06/23 03:07:52;;;;;;;7.45;5.60;;;;;;;;;;4948142;28;20034;-78
2023/06/23 03:10:17;;;;;;;6.80;5.25;;;;;;;;;;4947656;28;20384;-78
2023/06/23 03:12:43;;;;;;;6.05;5.45;;;;;;;;;;4951123;28;20031;-79
2023/06/23 03:15:08;;;;;;;11.52;9.30;;;;;;;;;;4957411;28;20027;-78
2023/06/23 03:17:37;;;;;;;2.53;1.48;;;;;;;;;;4955635;28;20037;-79
2023/06/23 03:20:30;;;;;;;10.70;9.50;;;;;;;;;;4971420;28;20063;-79
2023/06/23 03:23:07;;;;;;;13.57;9.70;;;;;;;;;;4947297;28;20027;-79
2023/06/23 03:25:32;;;;;;;4.53;3.72;;;;;;;;;;4980566;28;20194;-78
2023/06/23 03:28:02;;;;;;;9.75;7.65;;;;;;;;;;4951829;28;20496;-79
2023/06/23 03:30:39;;;;;;;10.23;9.20;;;;;;;;;;4953900;28;20550;-78
2023/06/23 03:33:11;;;;;;;6.72;5.90;;;;;;;;;;4943369;28;20054;-78
2023/06/23 03:35:41;;;;;;;5.32;4.07;;;;;;;;;;4948873;28;20027;-78
2023/06/23 03:38:10;;;;;;;5.18;3.83;;;;;;;;;;4950979;28;20039;-78
2023/06/23 03:40:50;;;;;;;4.20;3.83;;;;;;;;;;4949134;28;20050;-79
2023/06/23 03:43:26;;;;;;;2.38;1.85;;;;;;;;;;4965626;28;20032;-78
2023/06/23 03:45:56;;;;;;;1.70;1.58;;;;;;;;;;4952444;28;20078;-78
2023/06/23 03:48:26;;;;;;;2.17;1.60;;;;;;;;;;4952692;28;20708;-78
2023/06/23 03:50:54;;;;;;;2.03;1.27;;;;;;;;;;4943798;28;20624;-79
2023/06/23 03:53:21;;;;;;;1.60;1.30;;;;;;;;;;4955301;28;20039;-78
2023/06/23 03:55:48;;;;;;;2.53;1.27;;;;;;;;;;4942870;28;20566;-77
2023/06/23 03:58:15;;;;;;;6.05;1.20;;;;;;;;;;4945892;28;20112;-79
2023/06/23 04:00:42;;;;;;;2.53;0.95;;;;;;;;;;4947416;28;20026;-79
2023/06/23 04:03:09;;;;;;;1.85;0.93;;;;;;;;;;4951183;28;20034;-78
2023/06/23 04:05:38;;;;;;;0.95;0.77;;;;;;;;;;4946933;28;20038;-78
2023/06/23 04:08:04;;;;;;;0.73;0.70;;;;;;;;;;4950686;28;20456;-79
2023/06/23 04:10:32;;;;;;;1.35;0.70;;;;;;;;;;4948624;28;20107;-78
2023/06/23 04:13:00;;;;;;;0.68;0.60;;;;;;;;;;4953793;28;20035;-78
2023/06/23 04:15:26;;;;;;;1.20;1.10;;;;;;;;;;4963833;28;20035;-78
2023/06/23 04:17:54;;;;;;;1.45;0.80;;;;;;;;;;4966444;28;20691;-79
2023/06/23 04:20:21;;;;;;;0.88;0.88;;;;;;;;;;4971188;28;20066;-78
2023/06/23 04:22:49;;;;;;;0.90;0.90;;;;;;;;;;4951911;28;20019;-78
2023/06/23 04:25:17;;;;;;;1.00;0.90;;;;;;;;;;4954094;28;20020;-77
2023/06/23 04:27:45;;;;;;;1.25;1.15;;;;;;;;;;4964040;28;20052;-77
2023/06/23 04:30:12;;;;;;;1.27;0.80;;;;;;;;;;4949171;28;20019;-78
2023/06/23 04:32:39;;;;;;;1.58;0.80;;;;;;;;;;4956202;28;20050;-78
2023/06/23 04:35:05;;;;;;;2.65;0.82;;;;;;;;;;4948270;28;20047;-79
2023/06/23 04:37:46;;;;;;;0.77;0.77;;;;;;;;;;4970106;28;20031;-78
2023/06/23 04:40:20;;;;;;;0.70;0.70;;;;;;;;;;4955032;28;20024;-78
2023/06/23 04:42:59;;;;;;;0.80;0.80;;;;;;;;;;4959087;28;20435;-78
2023/06/23 04:45:27;;;;;;;1.00;0.63;;;;;;;;;;4963607;28;20527;-79
2023/06/23 04:47:56;;;;;;;0.80;0.80;;;;;;;;;;4952275;28;20031;-78
2023/06/23 04:50:25;;;;;;;0.70;0.70;;;;;;;;;;4956229;28;20081;-79
2023/06/23 04:53:00;;;;;;;0.73;0.73;;;;;;;;;;4967232;28;20038;-78
2023/06/23 04:55:30;;;;;;;0.90;0.70;;;;;;;;;;4954491;28;20055;-78
2023/06/23 04:57:58;;;;;;;0.80;0.80;;;;;;;;;;4955743;28;20018;-78
2023/06/23 05:00:25;;;;;;;0.95;0.57;;;;;;;;;;4953644;28;20031;-77
2023/06/23 05:02:53;;;;;;;0.65;0.65;;;;;;;;;;4947995;28;20557;-79
2023/06/23 05:05:23;;;;;;;1.55;0.70;;;;;;;;;;4951675;28;20162;-78
2023/06/23 05:07:50;;;;;;;0.70;0.70;;;;;;;;;;4950745;28;20471;-79
2023/06/23 05:10:19;;;;;;;0.60;0.60;;;;;;;;;;4958016;28;20028;-79
2023/06/23 05:12:47;;;;;;;0.77;0.77;;;;;;;;;;4954576;28;20034;-79
2023/06/23 05:15:13;;;;;;;2.40;0.70;;;;;;;;;;4970932;28;20086;-74
2023/06/23 05:17:40;;;;;;;0.82;0.80;;;;;;;;;;4953972;28;20031;-78
2023/06/23 05:20:09;;;;;;;0.60;0.60;;;;;;;;;;4946864;28;20031;-78
2023/06/23 05:22:37;;;;;;;1.17;0.60;;;;;;;;;;4960643;28;20023;-78
2023/06/23 05:25:04;;;;;;;0.98;0.70;;;;;;;;;;4948653;28;20046;-78
2023/06/23 05:27:32;;;;;;;0.50;0.50;;;;;;;;;;4991255;23;20146;-77
2023/06/23 05:29:59;;;;;;;1.83;0.80;;;;;;;;;;4952073;28;20043;-78
2023/06/23 05:32:28;;;;;;;1.00;1.00;;;;;;;;;;4954991;28;20062;-77
2023/06/23 05:34:58;;;;;;;1.63;0.80;;;;;;;;;;4950401;28;20031;-77
2023/06/23 05:37:25;;;;;;;0.88;0.88;;;;;;;;;;4955398;28;20019;-77
2023/06/23 05:39:51;;;;;;;0.65;0.65;;;;;;;;;;4951463;28;20034;-77
2023/06/23 05:42:19;;;;;;;0.90;0.80;;;;;;;;;;4944950;28;20026;-77
2023/06/23 05:44:44;;;;;;;0.60;0.60;;;;;;;;;;4939617;28;20022;-77
2023/06/23 05:47:15;;;;;;;0.95;0.95;;;;;;;;;;4952592;28;20035;-77
2023/06/23 05:49:43;;;;;;;1.52;1.00;;;;;;;;;;4951319;28;20026;-77
2023/06/23 05:52:14;;;;;;;0.50;0.50;;;;;;;;;;4949431;28;20026;-76
2023/06/23 05:54:44;;;;;;;0.60;0.60;;;;;;;;;;4945748;28;20102;-76
2023/06/23 05:57:20;;;;;;;2.38;0.80;;;;;;;;;;4958808;28;20026;-77
2023/06/23 05:59:52;;;;;;;1.00;0.73;;;;;;;;;;4954101;28;20058;-76
2023/06/23 06:02:24;;;;;;;1.05;1.00;;;;;;;;;;4954064;28;20077;-77
2023/06/23 06:04:55;;;;;;;1.15;1.05;;;;;;;;;;4960036;28;20050;-76
2023/06/23 06:07:21;;;;;;;0.88;0.88;;;;;;;;;;4959668;28;20050;-76
2023/06/23 06:09:48;;;;;;;1.55;1.08;;;;;;;;;;4959177;28;20029;-76
2023/06/23 06:12:15;;;;;;;2.88;0.90;;;;;;;;;;4950700;28;20174;-76
2023/06/23 06:14:43;;;;;;;2.00;1.00;;;;;;;;;;4960508;28;20118;-76
2023/06/23 06:17:09;;;;;;;0.80;0.80;;;;;;;;;;4947482;28;20023;-76
2023/06/23 06:19:37;;;;;;;1.10;0.90;;;;;;;;;;4961821;28;20045;-76
2023/06/23 06:22:06;;;;;;;1.40;0.70;;;;;;;;;;4942914;28;20529;-76
2023/06/23 06:24:33;;;;;;;1.65;0.90;;;;;;;;;;4950795;28;20034;-76
2023/06/23 06:27:00;;;;;;;0.98;0.90;;;;;;;;;;4953202;28;20046;-76
2023/06/23 06:29:27;;;;;;;1.25;1.10;;;;;;;;;;4941976;28;20058;-76
2023/06/23 06:31:56;;;;;;;0.93;0.80;;;;;;;;;;4956050;28;20026;-76
2023/06/23 06:34:23;;;;;;;1.77;0.88;;;;;;;;;;4949105;28;20122;-76
2023/06/23 06:36:50;;;;;;;0.95;0.93;;;;;;;;;;4943347;28;20069;-76
2023/06/23 06:39:16;;;;;;;3.13;0.73;;;;;;;;;;4951114;28;20206;-76
2023/06/23 06:41:43;;;;;;;0.90;0.90;;;;;;;;;;4950663;28;20020;-76
2023/06/23 06:44:09;;;;;;;1.50;0.85;;;;;;;;;;4948808;28;20023;-76
2023/06/23 06:46:38;;;;;;;0.60;0.60;;;;;;;;;;4952333;28;20046;-77
2023/06/23 06:49:04;;;;;;;1.58;0.90;;;;;;;;;;4942344;28;20426;-76
2023/06/23 06:51:32;;;;;;;0.85;0.85;;;;;;;;;;4953828;28;20095;-76
2023/06/23 06:53:57;;;;;;;1.38;0.90;;;;;;;;;;4945922;28;20030;-76
2023/06/23 06:56:23;;;;;;;0.85;0.82;;;;;;;;;;4948488;28;21055;-76
2023/06/23 06:58:49;;;;;;;2.25;1.10;;;;;;;;;;4948889;28;20065;-76
2023/06/23 07:01:15;;;;;;;0.65;0.65;;;;;;;;;;4944823;28;20016;-77
2023/06/23 07:03:42;;;;;;;0.82;0.82;;;;;;;;;;4946453;28;20389;-77
2023/06/23 07:06:08;;;;;;;1.13;1.10;;;;;;;;;;4947704;28;20054;-79
2023/06/23 07:08:34;;;;;;;0.77;0.77;;;;;;;;;;4944945;28;20471;-78
2023/06/23 07:11:00;;;;;;;1.42;0.75;;;;;;;;;;4949238;28;20356;-79
2023/06/23 07:13:25;;;;;;;0.73;0.73;;;;;;;;;;4954380;28;20550;-78
2023/06/23 07:15:51;;;;;;;0.90;0.90;;;;;;;;;;4953851;28;20400;-78
2023/06/23 07:18:16;;;;;;;1.13;0.90;;;;;;;;;;4952685;28;20023;-78
2023/06/23 07:20:41;;;;;;;2.95;0.70;;;;;;;;;;4963919;28;20576;-79
2023/06/23 07:23:08;;;;;;;0.90;0.65;;;;;;;;;;4959750;28;20042;-78
2023/06/23 07:25:34;;;;;;;0.75;0.75;;;;;;;;;;4953808;28;20031;-78
2023/06/23 07:27:59;;;;;;;0.70;0.70;;;;;;;;;;4957204;28;20509;-78
2023/06/23 07:30:24;;;;;;;0.80;0.80;;;;;;;;;;4952259;28;20036;-79
2023/06/23 07:32:50;;;;;;;0.63;0.63;;;;;;;;;;4950470;28;20031;-79
2023/06/23 07:35:15;;;;;;;0.98;0.82;;;;;;;;;;4950920;28;20030;-79
2023/06/23 07:37:40;;;;;;;0.68;0.68;;;;;;;;;;4946761;28;20286;-78
2023/06/23 07:40:06;;;;;;;0.73;0.73;;;;;;;;;;4949810;28;20022;-79
2023/06/23 07:42:32;;;;;;;0.70;0.70;;;;;;;;;;4946510;28;20023;-77
2023/06/23 07:44:57;;;;;;;1.25;1.00;;;;;;;;;;4946272;28;20078;-78
2023/06/23 07:47:23;;;;;;;0.50;0.50;;;;;;;;;;4941719;28;20031;-80
2023/06/23 07:49:48;;;;;;;0.60;0.55;;;;;;;;;;4954033;28;20506;-79
2023/06/23 07:52:13;;;;;;;0.70;0.60;;;;;;;;;;4964291;28;20340;-78
2023/06/23 07:54:41;;;;;;;0.68;0.50;;;;;;;;;;4950141;28;20031;-79
2023/06/23 07:57:08;;;;;;;0.70;0.70;;;;;;;;;;4954804;28;20431;-79
2023/06/23 07:59:36;;;;;;;0.43;0.43;;;;;;;;;;4959480;28;20023;-79
2023/06/23 08:02:02;;;;;;;0.30;0.30;;;;;;;;;;4960808;28;20082;-78
2023/06/23 08:04:27;;;;;;;0.63;0.50;;;;;;;;;;4952418;28;20556;-79
2023/06/23 08:06:53;;;;;;;1.60;0.52;;;;;;;;;;4947831;28;20031;-78
2023/06/23 08:09:19;;;;;;;1.00;0.50;;;;;;;;;;4951870;28;20041;-78
2023/06/23 08:11:44;;;;;;;0.70;0.52;;;;;;;;;;4951830;28;20102;-78
2023/06/23 08:14:11;;;;;;;0.47;0.47;;;;;;;;;;4952055;28;20389;-79
2023/06/23 08:16:36;;;;;;;0.43;0.43;;;;;;;;;;4950624;28;20031;-79
2023/06/23 08:19:01;;;;;;;0.70;0.40;;;;;;;;;;4950842;28;20082;-78
2023/06/23 08:21:27;;;;;;;0.40;0.40;;;;;;;;;;4953068;28;20098;-79
2023/06/23 08:23:52;;;;;;;0.35;0.35;;;;;;;;;;4954984;28;20031;-78
2023/06/23 08:26:18;;;;;;;0.50;0.50;;;;;;;;;;4955140;28;20039;-79
2023/06/23 08:28:43;;;;;;;0.75;0.70;;;;;;;;;;4955444;28;20287;-79
2023/06/23 08:31:09;;;;;;;0.47;0.47;;;;;;;;;;4952138;28;20483;-78
2023/06/23 08:33:35;;;;;;;0.40;0.40;;;;;;;;;;4959578;28;20406;-79
2023/06/23 08:36:01;;;;;;;0.38;0.30;;;;;;;;;;4959828;28;20034;-79
2023/06/23 08:38:27;;;;;;;0.45;0.30;;;;;;;;;;4951381;28;20034;-79
2023/06/23 08:40:53;;;;;;;0.40;0.38;;;;;;;;;;4954953;28;20023;-79
2023/06/23 08:43:26;;;;;;;0.30;0.30;;;;;;;;;;4960612;28;20406;-79
2023/06/23 08:46:02;;;;;;;0.28;0.28;;;;;;;;;;4960201;28;20057;-78
2023/06/23 08:48:30;;;;;;;0.35;0.20;;;;;;;;;;4941509;28;20035;-79
2023/06/23 08:51:00;;;;;;;1.95;0.20;;;;;;;;;;4946048;28;20023;-79
2023/06/23 08:53:25;;;;;;;0.20;0.20;;;;;;;;;;4953192;28;20031;-79
2023/06/23 08:55:52;;;;;;;0.95;0.30;;;;;;;;;;4954566;28;20050;-78
2023/06/23 08:58:19;;;;;;;0.20;0.20;;;;;;;;;;4953834;28;20484;-79
2023/06/23 09:00:44;;;;;;;0.10;0.10;;;;;;;;;;4959769;28;20396;-79
2023/06/23 09:03:10;;;;;;;0.10;0.10;;;;;;;;;;4955560;28;20034;-78
2023/06/23 09:05:36;;;;;;;17.10;0.55;;;;;;;;;;4965077;28;20033;-79
2023/06/23 09:08:01;;;;;;;0.17;0.17;;;;;;;;;;4947816;28;20035;-78
2023/06/23 09:10:26;;;;;;;0.10;0.10;;;;;;;;;;4952344;28;20047;-78
2023/06/23 09:13:07;;;;;;;0.22;0.22;;;;;;;;;;4943693;28;20453;-79
2023/06/23 09:15:33;;;;;;;0.10;0.10;;;;;;;;;;4953859;28;20034;-78
2023/06/23 09:18:01;;;;;;;0.20;0.20;;;;;;;;;;4947584;28;20632;-79
2023/06/23 09:20:29;;;;;;;0.45;0.20;;;;;;;;;;4953954;28;20027;-78
2023/06/23 09:22:55;;;;;;;0.10;0.10;;;;;;;;;;4957427;28;20074;-78
2023/06/23 09:25:43;;;;;;;0.13;0.13;;;;;;;;;;4952957;28;20047;-78
2023/06/23 09:28:29;;;;;;;0.17;0.10;;;;;;;;;;4955495;28;20279;-78
2023/06/23 09:31:14;;;;;;;0.20;0.20;;;;;;;;;;4952412;28;20517;-79
2023/06/23 09:33:52;;;;;;;0.17;0.10;;;;;;;;;;4976393;28;20036;-79
2023/06/23 09:36:17;;;;;;;0.15;0.15;;;;;;;;;;4943908;28;20052;-78
2023/06/23 09:38:43;;;;;;;0.38;0.17;;;;;;;;;;4951000;28;20068;-78
2023/06/23 09:41:15;;;;;;;0.38;0.10;;;;;;;;;;4950737;28;20020;-78
2023/06/23 09:43:43;;;;;;;0.20;0.20;;;;;;;;;;4945575;28;20031;-77
2023/06/23 09:46:10;;;;;;;0.20;0.10;;;;;;;;;;4952610;28;20023;-77
2023/06/23 09:48:36;;;;;;;0.20;0.20;;;;;;;;;;4964392;28;20027;-78
2023/06/23 09:51:03;;;;;;;0.15;0.13;;;;;;;;;;4954598;28;20277;-78
2023/06/23 09:53:37;;;;;;;0.25;0.20;;;;;;;;;;4958096;28;20570;-77
2023/06/23 09:56:03;;;;;;;0.10;0.10;;;;;;;;;;4952223;28;20125;-78
2023/06/23 09:58:40;;;;;;;0.10;0.10;;;;;;;;;;4953567;28;20394;-78
2023/06/23 10:01:07;;;;;;;0.13;0.10;;;;;;;;;;4953497;28;20466;-77
2023/06/23 10:03:42;;;;;;;0.20;0.20;;;;;;;;;;4944336;28;20306;-78
2023/06/23 10:06:07;;;;;;;0.88;0.10;;;;;;;;;;4956122;28;20028;-77
2023/06/23 10:08:39;;;;;;;0.10;0.10;;;;;;;;;;4944990;28;20039;-78
2023/06/23 10:11:06;;;;;;;0.20;0.20;;;;;;;;;;4947758;28;20086;-77
2023/06/23 10:13:32;;;;;;;0.50;0.30;;;;;;;;;;4947053;28;20031;-78
2023/06/23 10:15:59;;;;;;;0.20;0.20;;;;;;;;;;4944645;28;20034;-78
2023/06/23 10:18:25;;;;;;;0.30;0.20;;;;;;;;;;4954259;28;20047;-78
2023/06/23 10:20:50;;;;;;;0.40;0.20;;;;;;;;;;4949381;28;20058;-77
2023/06/23 10:23:17;;;;;;;0.10;0.10;;;;;;;;;;4948505;28;20037;-77
2023/06/23 10:25:43;;;;;;;0.20;0.20;;;;;;;;;;4947519;28;20067;-78
2023/06/23 10:28:10;;;;;;;0.52;0.30;;;;;;;;;;4954273;28;20462;-78
2023/06/23 10:30:39;;;;;;;0.20;0.20;;;;;;;;;;4944204;28;20036;-77
2023/06/23 10:33:07;;;;;;;0.30;0.10;;;;;;;;;;4943889;28;20047;-78
2023/06/23 10:35:33;;;;;;;1.10;0.63;;;;;;;;;;4949281;28;20522;-78
2023/06/23 10:38:03;;;;;;;0.20;0.20;;;;;;;;;;4946941;28;20035;-78
2023/06/23 10:40:35;;;;;;;0.40;0.30;;;;;;;;;;4954382;28;20487;-78
2023/06/23 10:43:01;;;;;;;0.82;0.40;;;;;;;;;;4947217;28;20046;-78
2023/06/23 10:45:27;;;;;;;0.20;0.20;;;;;;;;;;4940026;28;20110;-77
2023/06/23 10:47:53;;;;;;;0.73;0.40;;;;;;;;;;4947717;28;20099;-77
2023/06/23 10:50:20;;;;;;;0.47;0.47;;;;;;;;;;4948937;28;20483;-77
2023/06/23 10:52:45;;;;;;;0.47;0.47;;;;;;;;;;4953330;28;20019;-78
2023/06/23 10:55:36;;;;;;;1.30;0.68;;;;;;;;;;4947390;28;20411;-78
2023/06/23 10:58:08;;;;;;;0.40;0.40;;;;;;;;;;4946977;28;20046;-78
2023/06/23 11:00:34;;;;;;;0.60;0.40;;;;;;;;;;4954072;28;20506;-78
2023/06/23 11:02:59;;;;;;;0.80;0.80;;;;;;;;;;4950977;28;20062;-77
2023/06/23 11:05:24;;;;;;;0.65;0.55;;;;;;;;;;4948761;28;20107;-78
2023/06/23 11:08:03;;;;;;;1.42;0.73;;;;;;;;;;4952626;28;20113;-78
2023/06/23 11:10:52;;;;;;;0.65;0.63;;;;;;;;;;4949432;28;20054;-78
2023/06/23 11:13:17;;;;;;;1.23;0.63;;;;;;;;;;4945067;28;20030;-77
2023/06/23 11:15:59;;;;;;;0.50;0.50;;;;;;;;;;4951482;28;20034;-77
2023/06/23 11:18:26;;;;;;;0.93;0.90;;;;;;;;;;4946672;28;20026;-77
2023/06/23 11:20:51;;;;;;;1.33;0.90;;;;;;;;;;4950312;28;20328;-78
2023/06/23 11:23:18;;;;;;;1.42;0.93;;;;;;;;;;4952755;28;20024;-78
2023/06/23 11:25:49;;;;;;;1.38;1.00;;;;;;;;;;4953273;28;20024;-77
2023/06/23 11:28:37;;;;;;;1.05;0.80;;;;;;;;;;5100142;23;20058;-88
2023/06/23 11:31:13;;;;;;;1.48;0.70;;;;;;;;;;4970156;28;20038;-87
2023/06/23 11:33:43;;;;;;;0.68;0.68;;;;;;;;;;4963668;28;20035;-88
2023/06/23 11:36:15;;;;;;;2.00;0.98;;;;;;;;;;4963098;28;20487;-87
2023/06/23 11:38:42;;;;;;;1.33;1.23;;;;;;;;;;4951541;28;20031;-88
2023/06/23 11:41:08;;;;;;;1.30;0.95;;;;;;;;;;4953133;28;20106;-88
2023/06/23 11:43:35;;;;;;;1.42;1.23;;;;;;;;;;4955011;28;20106;-87
2023/06/23 11:46:11;;;;;;;0.90;0.90;;;;;;;;;;4958339;28;20035;-88
2023/06/23 11:48:37;;;;;;;0.88;0.80;;;;;;;;;;4947302;28;20024;-88
2023/06/23 11:51:08;;;;;;;1.05;0.90;;;;;;;;;;4948245;28;20038;-88
2023/06/23 11:53:34;;;;;;;;;;;;;;;;;;4932063;29;20047;-87
2023/06/23 11:56:00;;;;;;;1.35;1.00;;;;;;;;;;4951611;28;19911;-88
2023/06/23 11:58:30;;;;;;;1.77;1.45;;;;;;;;;;4955482;28;20077;-88
2023/06/23 12:00:56;;;;;;;1.50;1.40;;;;;;;;;;4961814;28;20031;-88
2023/06/23 12:03:21;;;;;;;1.20;1.10;;;;;;;;;;4954895;28;20026;-87
2023/06/23 12:05:46;;;;;;;1.65;1.02;;;;;;;;;;4951581;28;20504;-88
2023/06/23 12:08:13;;;;;;;1.13;1.00;;;;;;;;;;4956633;28;20022;-88
2023/06/23 12:10:42;;;;;;;1.05;0.95;;;;;;;;;;4946434;28;20031;-87
2023/06/23 12:13:09;;;;;;;1.13;1.00;;;;;;;;;;4960211;28;20049;-88
2023/06/23 12:15:38;;;;;;;2.03;1.35;;;;;;;;;;4949028;28;20031;-88
2023/06/23 12:18:05;;;;;;;1.98;1.10;;;;;;;;;;4954764;28;20484;-88
2023/06/23 12:20:35;;;;;;;1.30;0.98;;;;;;;;;;4948504;28;20634;-88
2023/06/23 12:23:05;;;;;;;1.17;1.07;;;;;;;;;;4950259;28;20911;-88
2023/06/23 12:25:38;;;;;;;1.42;1.08;;;;;;;;;;4958063;28;20034;-88
2023/06/23 12:28:05;;;;;;;1.35;1.00;;;;;;;;;;4946885;28;20724;-88
2023/06/23 12:30:41;;;;;;;1.10;0.95;;;;;;;;;;4952270;28;20054;-88
2023/06/23 12:33:20;;;;;;;1.27;0.93;;;;;;;;;;4956507;28;20034;-87
2023/06/23 12:36:00;;;;;;;1.30;1.05;;;;;;;;;;4942264;28;20019;-88
2023/06/23 12:38:26;;;;;;;1.52;1.10;;;;;;;;;;4947431;28;20030;-87
2023/06/23 12:40:52;;;;;;;4.53;1.70;;;;;;;;;;4950817;28;20030;-87
2023/06/23 12:43:18;;;;;;;1.15;1.05;;;;;;;;;;4951007;28;20034;-87
2023/06/23 12:45:47;;;;;;;2.42;1.20;;;;;;;;;;4949824;28;20035;-87
2023/06/23 12:48:13;;;;;;;2.10;1.45;;;;;;;;;;4954520;28;20031;-89
2023/06/23 12:50:42;;;;;;;2.17;1.70;;;;;;;;;;4949915;28;20042;-87
2023/06/23 12:53:10;;;;;;;1.73;1.50;;;;;;;;;;4953894;28;20037;-87
2023/06/23 12:55:36;;;;;;;1.23;1.13;;;;;;;;;;4951671;28;20027;-87
2023/06/23 12:58:01;;;;;;;1.90;1.58;;;;;;;;;;4951568;28;20030;-88
2023/06/23 13:00:26;;;;;;;1.58;1.17;;;;;;;;;;4933852;28;20042;-88
2023/06/23 13:02:53;;;;;;;1.88;1.30;;;;;;;;;;4955078;28;20095;-88
2023/06/23 13:05:20;;;;;;;1.15;1.05;;;;;;;;;;4951766;28;20078;-87
2023/06/23 13:07:46;;;;;;;1.60;1.50;;;;;;;;;;4952984;28;20442;-87
2023/06/23 13:10:11;;;;;;;1.52;1.40;;;;;;;;;;4955325;28;20134;-88
2023/06/23 13:12:37;;;;;;;1.85;1.63;;;;;;;;;;4942231;28;20031;-88
2023/06/23 13:15:03;;;;;;;2.20;1.35;;;;;;;;;;4952433;28;20110;-87
2023/06/23 13:17:30;;;;;;;2.25;1.67;;;;;;;;;;4951073;28;20565;-88
2023/06/23 13:19:55;;;;;;;1.65;1.55;;;;;;;;;;4969045;23;20130;-76
2023/06/23 13:22:21;;;;;;;1.77;1.48;;;;;;;;;;4949738;28;20527;-76
2023/06/23 13:24:46;;;;;;;2.22;1.45;;;;;;;;;;4946566;28;20031;-76
2023/06/23 13:27:12;;;;;;;1.40;1.30;;;;;;;;;;4948830;28;20023;-76
2023/06/23 13:29:37;;;;;;;1.73;1.63;;;;;;;;;;4936506;28;20034;-75
2023/06/23 13:32:06;;;;;;;1.80;1.65;;;;;;;;;;4948557;28;20419;-75
2023/06/23 13:34:32;;;;;;;1.30;1.20;;;;;;;;;;4956604;28;20027;-75
2023/06/23 13:36:58;;;;;;;1.67;1.52;;;;;;;;;;4956130;28;20037;-75
2023/06/23 13:39:23;;;;;;;1.60;1.48;;;;;;;;;;4953591;28;20247;-75
2023/06/23 13:41:49;;;;;;;2.28;1.38;;;;;;;;;;4950618;28;20015;-75
2023/06/23 13:44:17;;;;;;;1.50;1.40;;;;;;;;;;4952953;28;20054;-75
2023/06/23 13:46:42;;;;;;;1.85;1.40;;;;;;;;;;4954100;28;20034;-75
2023/06/23 13:49:08;;;;;;;1.58;1.38;;;;;;;;;;4950018;28;20034;-75
2023/06/23 13:51:34;;;;;;;1.38;1.27;;;;;;;;;;4954109;28;20177;-75
2023/06/23 13:53:59;;;;;;;1.42;1.33;;;;;;;;;;4948692;28;20063;-75
2023/06/23 13:56:24;;;;;;;1.10;1.00;;;;;;;;;;4957733;28;20495;-75
2023/06/23 13:58:50;;;;;;;1.10;1.00;;;;;;;;;;4956838;28;20019;-75
2023/06/23 14:01:15;;;;;;;2.33;1.40;;;;;;;;;;4956371;28;20031;-75
2023/06/23 14:03:40;;;;;;;1.67;1.35;;;;;;;;;;4954440;28;20034;-75
2023/06/23 14:06:06;;;;;;;1.98;1.45;;;;;;;;;;4953854;28;20023;-75
2023/06/23 14:08:33;;;;;;;2.50;1.42;;;;;;;;;;4953606;28;20034;-76
2023/06/23 14:10:59;;;;;;;2.63;1.85;;;;;;;;;;4951374;28;20073;-76
2023/06/23 14:13:24;;;;;;;1.42;1.27;;;;;;;;;;4955404;28;20507;-75
2023/06/23 14:15:50;;;;;;;1.35;1.20;;;;;;;;;;4950985;28;20031;-75
2023/06/23 14:18:15;;;;;;;2.47;2.28;;;;;;;;;;4956992;28;20506;-75
2023/06/23 14:20:44;;;;;;;2.08;1.67;;;;;;;;;;4950955;28;20038;-75
2023/06/23 14:23:10;;;;;;;2.85;2.10;;;;;;;;;;4950921;28;20558;-75
2023/06/23 14:25:35;;;;;;;1.40;1.10;;;;;;;;;;4959188;28;20023;-76
2023/06/23 14:28:00;;;;;;;1.77;1.50;;;;;;;;;;4947623;28;20527;-75
2023/06/23 14:30:26;;;;;;;1.17;1.05;;;;;;;;;;4950326;28;20019;-75
2023/06/23 14:32:52;;;;;;;1.92;1.52;;;;;;;;;;4953944;28;20035;-75
2023/06/23 14:35:18;;;;;;;1.45;1.35;;;;;;;;;;4953622;28;20554;-75
2023/06/23 14:37:44;;;;;;;2.40;1.98;;;;;;;;;;4949217;28;20023;-74
2023/06/23 14:40:10;;;;;;;3.38;2.17;;;;;;;;;;4954983;28;20271;-74
2023/06/23 14:42:36;;;;;;;1.92;1.80;;;;;;;;;;4958710;28;20015;-74
2023/06/23 14:45:01;;;;;;;4.15;2.92;;;;;;;;;;4954184;28;20089;-75
2023/06/23 14:47:26;;;;;;;2.92;2.65;;;;;;;;;;4951239;28;20098;-75
2023/06/23 14:49:52;;;;;;;2.47;2.25;;;;;;;;;;4948961;28;20058;-75